Time;durP1;ratioP1;P1;durP2;ratioP2;P2;SDS_P1;SDS_P2;PMS_P1;PMS_P2;Temp;Humidity;BMP_temperature;BMP_pressure;BME280_temperature;BME280_humidity;BME280_pressure;Samples;Min_cycle;Max_cycle;Signal;HPM_P1;HPM_P2
2022/09/02 00:00:48;;;;;;;4.90;4.40;;;;;;;;;;5042045;28;24510;-46
2022/09/02 00:03:13;;;;;;;4.30;3.90;;;;;;;;;;5044695;28;24423;-45
2022/09/02 00:05:39;;;;;;;4.13;3.72;;;;;;;;;;5038425;28;24434;-45
2022/09/02 00:08:05;;;;;;;4.50;4.10;;;;;;;;;;5044770;28;24484;-46
2022/09/02 00:10:30;;;;;;;4.17;3.87;;;;;;;;;;5042186;28;24466;-45
2022/09/02 00:12:56;;;;;;;3.97;3.60;;;;;;;;;;5040592;28;25295;-45
2022/09/02 00:15:21;;;;;;;4.50;4.10;;;;;;;;;;5040326;28;25000;-50
2022/09/02 00:17:47;;;;;;;5.25;3.85;;;;;;;;;;5040593;28;24430;-45
2022/09/02 00:20:12;;;;;;;4.30;3.90;;;;;;;;;;5044771;28;24418;-46
2022/09/02 00:22:37;;;;;;;4.30;3.90;;;;;;;;;;5041668;28;24420;-46
2022/09/02 00:25:02;;;;;;;4.20;3.80;;;;;;;;;;5034219;28;24411;-46
2022/09/02 00:27:28;;;;;;;4.60;4.20;;;;;;;;;;5045233;28;25019;-45
2022/09/02 00:29:53;;;;;;;4.47;4.00;;;;;;;;;;5031000;28;24420;-47
2022/09/02 00:32:18;;;;;;;4.80;4.00;;;;;;;;;;5030232;28;24438;-47
2022/09/02 00:34:43;;;;;;;3.90;3.60;;;;;;;;;;5039313;28;24467;-45
2022/09/02 00:37:08;;;;;;;4.30;3.95;;;;;;;;;;5043846;28;24825;-46
2022/09/02 00:39:34;;;;;;;4.00;3.70;;;;;;;;;;5042954;28;24988;-46
2022/09/02 00:42:00;;;;;;;4.33;4.00;;;;;;;;;;5040929;28;24420;-45
2022/09/02 00:44:25;;;;;;;3.97;3.40;;;;;;;;;;5030991;28;25000;-46
2022/09/02 00:46:50;;;;;;;4.17;3.77;;;;;;;;;;5037322;28;24415;-45
2022/09/02 00:49:24;;;;;;;4.70;4.20;;;;;;;;;;5030950;28;24450;-45
2022/09/02 00:51:51;;;;;;;4.50;4.10;;;;;;;;;;5029437;28;24535;-45
2022/09/02 00:54:18;;;;;;;4.57;4.18;;;;;;;;;;5034538;28;24420;-45
2022/09/02 00:56:44;;;;;;;4.60;4.30;;;;;;;;;;5045080;28;24526;-46
2022/09/02 00:59:14;;;;;;;4.22;3.92;;;;;;;;;;5042749;28;24841;-46
2022/09/02 01:01:39;;;;;;;4.40;4.00;;;;;;;;;;5040634;28;24774;-45
2022/09/02 01:04:04;;;;;;;4.80;4.40;;;;;;;;;;5032772;28;25083;-45
2022/09/02 01:06:31;;;;;;;4.37;4.07;;;;;;;;;;5030974;28;24420;-45
2022/09/02 01:08:58;;;;;;;3.95;3.65;;;;;;;;;;5034844;28;24506;-45
2022/09/02 01:11:31;;;;;;;3.70;3.40;;;;;;;;;;5030771;28;24899;-45
2022/09/02 01:13:56;;;;;;;3.90;3.60;;;;;;;;;;5037421;28;24438;-46
2022/09/02 01:16:26;;;;;;;4.60;4.20;;;;;;;;;;5041375;28;24980;-45
2022/09/02 01:18:54;;;;;;;4.15;3.85;;;;;;;;;;5032626;28;24423;-45
2022/09/02 01:21:19;;;;;;;5.40;3.90;;;;;;;;;;5034487;28;24424;-45
2022/09/02 01:23:45;;;;;;;4.00;3.70;;;;;;;;;;5038123;28;24435;-46
2022/09/02 01:26:11;;;;;;;3.80;3.50;;;;;;;;;;5040746;28;24501;-45
2022/09/02 01:28:36;;;;;;;4.50;4.10;;;;;;;;;;5033033;28;24980;-46
2022/09/02 01:31:02;;;;;;;4.90;3.90;;;;;;;;;;5033196;28;24420;-45
2022/09/02 01:33:27;;;;;;;4.20;3.90;;;;;;;;;;5039858;28;24969;-45
2022/09/02 01:35:52;;;;;;;4.22;3.92;;;;;;;;;;5031655;28;24469;-46
2022/09/02 01:38:18;;;;;;;3.80;3.50;;;;;;;;;;5040232;28;24825;-46
2022/09/02 01:40:43;;;;;;;4.30;3.90;;;;;;;;;;5033599;28;25036;-45
2022/09/02 01:43:10;;;;;;;3.93;3.63;;;;;;;;;;5031915;28;25005;-44
2022/09/02 01:45:36;;;;;;;4.50;4.10;;;;;;;;;;5037682;28;24789;-45
2022/09/02 01:48:02;;;;;;;4.18;3.80;;;;;;;;;;5039595;28;25038;-45
2022/09/02 01:50:29;;;;;;;5.15;3.80;;;;;;;;;;5032642;28;24517;-45
2022/09/02 01:52:54;;;;;;;4.18;3.88;;;;;;;;;;5035596;28;24462;-44
2022/09/02 01:55:20;;;;;;;4.22;3.85;;;;;;;;;;5028299;28;24415;-45
2022/09/02 01:57:46;;;;;;;4.63;3.90;;;;;;;;;;5044062;28;24478;-45
2022/09/02 02:00:12;;;;;;;4.40;4.00;;;;;;;;;;5031800;28;24511;-46
2022/09/02 02:02:37;;;;;;;3.83;3.53;;;;;;;;;;5035055;28;24510;-46
2022/09/02 02:05:02;;;;;;;4.20;3.70;;;;;;;;;;5040044;28;24451;-46
2022/09/02 02:07:27;;;;;;;5.00;4.40;;;;;;;;;;5040850;28;24509;-45
2022/09/02 02:09:52;;;;;;;4.38;4.07;;;;;;;;;;5038840;28;24438;-45
2022/09/02 02:12:18;;;;;;;4.30;4.00;;;;;;;;;;5042494;28;24498;-45
2022/09/02 02:14:43;;;;;;;3.90;3.60;;;;;;;;;;5042962;28;24431;-44
2022/09/02 02:17:08;;;;;;;3.97;3.67;;;;;;;;;;5037181;28;24424;-45
2022/09/02 02:19:34;;;;;;;3.60;3.30;;;;;;;;;;5038569;28;25001;-45
2022/09/02 02:21:59;;;;;;;3.90;3.50;;;;;;;;;;5037264;28;24414;-45
2022/09/02 02:24:24;;;;;;;3.43;3.23;;;;;;;;;;5029353;28;24502;-45
2022/09/02 02:26:49;;;;;;;3.60;3.30;;;;;;;;;;5046292;28;24430;-46
2022/09/02 02:29:15;;;;;;;3.47;3.27;;;;;;;;;;5031989;28;25001;-45
2022/09/02 02:31:40;;;;;;;3.60;3.40;;;;;;;;;;5042461;28;25030;-45
2022/09/02 02:34:05;;;;;;;3.80;3.50;;;;;;;;;;5036352;28;24443;-45
2022/09/02 02:36:31;;;;;;;3.80;3.50;;;;;;;;;;5047891;28;24422;-45
2022/09/02 02:38:56;;;;;;;3.60;3.30;;;;;;;;;;5030297;28;24434;-45
2022/09/02 02:41:21;;;;;;;3.80;3.35;;;;;;;;;;5031128;28;24427;-46
2022/09/02 02:43:46;;;;;;;3.80;3.50;;;;;;;;;;5034088;28;24420;-45
2022/09/02 02:46:12;;;;;;;3.37;3.17;;;;;;;;;;5038711;28;24503;-45
2022/09/02 02:48:37;;;;;;;4.27;3.50;;;;;;;;;;5038776;28;24837;-46
2022/09/02 02:51:03;;;;;;;3.90;3.50;;;;;;;;;;5030030;28;25049;-46
2022/09/02 02:53:30;;;;;;;3.80;3.50;;;;;;;;;;5046801;28;25012;-46
2022/09/02 02:55:55;;;;;;;3.53;3.33;;;;;;;;;;5043751;28;24489;-45
2022/09/02 02:58:20;;;;;;;3.80;3.50;;;;;;;;;;5038502;28;24916;-45
2022/09/02 03:00:46;;;;;;;3.70;3.40;;;;;;;;;;5043510;28;24423;-46
2022/09/02 03:03:11;;;;;;;3.80;3.50;;;;;;;;;;5038284;28;24516;-46
2022/09/02 03:05:37;;;;;;;4.03;3.73;;;;;;;;;;5039134;28;24968;-45
2022/09/02 03:08:06;;;;;;;3.90;3.70;;;;;;;;;;5042404;28;24515;-45
2022/09/02 03:10:32;;;;;;;4.90;4.50;;;;;;;;;;5047343;28;24464;-45
2022/09/02 03:12:58;;;;;;;3.90;3.70;;;;;;;;;;5041571;28;24430;-45
2022/09/02 03:15:23;;;;;;;4.40;4.00;;;;;;;;;;5046755;28;24985;-45
2022/09/02 03:17:49;;;;;;;4.70;4.30;;;;;;;;;;5041645;28;24435;-46
2022/09/02 03:20:15;;;;;;;4.57;4.27;;;;;;;;;;5036079;28;24828;-46
2022/09/02 03:22:42;;;;;;;4.68;4.38;;;;;;;;;;5041249;28;24510;-46
2022/09/02 03:25:09;;;;;;;4.20;3.90;;;;;;;;;;5040813;28;24504;-45
2022/09/02 03:27:36;;;;;;;4.10;3.80;;;;;;;;;;5031946;28;24423;-46
2022/09/02 03:30:01;;;;;;;4.13;3.80;;;;;;;;;;5040994;28;24416;-46
2022/09/02 03:32:26;;;;;;;4.40;4.10;;;;;;;;;;5033610;28;24485;-45
2022/09/02 03:34:52;;;;;;;3.80;3.50;;;;;;;;;;5042038;28;25004;-45
2022/09/02 03:37:17;;;;;;;4.40;4.00;;;;;;;;;;5036908;28;24816;-46
2022/09/02 03:39:42;;;;;;;3.95;3.65;;;;;;;;;;5036350;28;24514;-46
2022/09/02 03:42:07;;;;;;;4.15;3.80;;;;;;;;;;5045632;28;24403;-46
2022/09/02 03:44:33;;;;;;;3.70;3.40;;;;;;;;;;5042683;28;24774;-45
2022/09/02 03:46:58;;;;;;;4.10;3.80;;;;;;;;;;5038325;28;24428;-45
2022/09/02 03:49:24;;;;;;;4.23;3.93;;;;;;;;;;5032477;28;24428;-45
2022/09/02 03:51:49;;;;;;;4.20;3.90;;;;;;;;;;5030376;28;24728;-45
2022/09/02 03:54:14;;;;;;;4.70;4.30;;;;;;;;;;5044752;28;24418;-45
2022/09/02 03:56:39;;;;;;;4.60;4.20;;;;;;;;;;5047198;28;24828;-45
2022/09/02 03:59:04;;;;;;;4.30;4.00;;;;;;;;;;5043861;28;24858;-45
2022/09/02 04:01:29;;;;;;;4.20;3.90;;;;;;;;;;5038538;28;24420;-46
2022/09/02 04:03:55;;;;;;;4.67;4.13;;;;;;;;;;5028662;28;24408;-46
2022/09/02 04:06:23;;;;;;;4.40;4.00;;;;;;;;;;5042007;28;24419;-46
2022/09/02 04:08:48;;;;;;;4.60;4.30;;;;;;;;;;5036717;28;24414;-47
2022/09/02 04:11:16;;;;;;;4.88;4.47;;;;;;;;;;5034513;28;25154;-46
2022/09/02 04:13:42;;;;;;;5.40;4.90;;;;;;;;;;5043833;28;25217;-45
2022/09/02 04:16:12;;;;;;;5.50;5.07;;;;;;;;;;5038840;28;24518;-45
2022/09/02 04:18:37;;;;;;;4.65;4.32;;;;;;;;;;5039161;28;24423;-46
2022/09/02 04:21:03;;;;;;;4.18;3.88;;;;;;;;;;5030979;28;24431;-45
2022/09/02 04:23:28;;;;;;;4.40;4.10;;;;;;;;;;5043571;28;24996;-45
2022/09/02 04:25:53;;;;;;;4.50;4.10;;;;;;;;;;5035838;28;24424;-46
2022/09/02 04:28:19;;;;;;;4.07;3.78;;;;;;;;;;5037284;28;24428;-46
2022/09/02 04:30:44;;;;;;;4.32;4.00;;;;;;;;;;5040538;28;24430;-46
2022/09/02 04:33:10;;;;;;;4.57;4.17;;;;;;;;;;5032235;28;25239;-46
2022/09/02 04:35:42;;;;;;;4.70;4.30;;;;;;;;;;5038424;28;24446;-46
2022/09/02 04:38:07;;;;;;;4.43;4.13;;;;;;;;;;5036529;28;24428;-45
2022/09/02 04:40:32;;;;;;;4.55;4.20;;;;;;;;;;5052919;28;24487;-46
2022/09/02 04:42:58;;;;;;;5.10;4.70;;;;;;;;;;5043846;28;24458;-45
2022/09/02 04:45:23;;;;;;;4.80;3.97;;;;;;;;;;5045473;28;24416;-45
2022/09/02 04:47:48;;;;;;;4.57;4.27;;;;;;;;;;5036486;28;25042;-46
2022/09/02 04:50:13;;;;;;;4.40;4.00;;;;;;;;;;5024709;28;24649;-45
2022/09/02 04:52:38;;;;;;;5.15;4.75;;;;;;;;;;5026961;28;24538;-48
2022/09/02 04:55:05;;;;;;;4.60;4.20;;;;;;;;;;5028821;28;24423;-45
2022/09/02 04:57:31;;;;;;;4.57;4.28;;;;;;;;;;5029065;28;24416;-45
2022/09/02 04:59:56;;;;;;;5.00;4.30;;;;;;;;;;5038120;28;24430;-45
2022/09/02 05:02:21;;;;;;;5.78;4.47;;;;;;;;;;5037255;28;24486;-46
2022/09/02 05:04:46;;;;;;;4.55;4.25;;;;;;;;;;5026074;28;24424;-46
2022/09/02 05:07:12;;;;;;;5.00;4.60;;;;;;;;;;5022915;28;24520;-45
2022/09/02 05:09:37;;;;;;;4.90;4.50;;;;;;;;;;5037938;28;24976;-46
2022/09/02 05:12:03;;;;;;;5.10;4.70;;;;;;;;;;5040769;28;24477;-45
2022/09/02 05:14:28;;;;;;;4.70;4.30;;;;;;;;;;5038983;28;24782;-46
2022/09/02 05:16:54;;;;;;;4.80;4.30;;;;;;;;;;5037014;28;24455;-46
2022/09/02 05:19:22;;;;;;;6.50;5.03;;;;;;;;;;5039039;28;24415;-46
2022/09/02 05:21:47;;;;;;;4.85;4.45;;;;;;;;;;5023622;28;24453;-46
2022/09/02 05:24:13;;;;;;;5.10;4.70;;;;;;;;;;5032968;28;24424;-46
2022/09/02 05:26:39;;;;;;;7.03;5.20;;;;;;;;;;5029196;28;24484;-46
2022/09/02 05:29:08;;;;;;;5.13;4.63;;;;;;;;;;5026520;28;24767;-46
2022/09/02 05:31:34;;;;;;;6.25;5.55;;;;;;;;;;5031792;28;25004;-46
2022/09/02 05:33:59;;;;;;;5.50;5.00;;;;;;;;;;5032653;28;24443;-44
2022/09/02 05:36:24;;;;;;;5.00;4.50;;;;;;;;;;5041118;28;24881;-45
2022/09/02 05:38:50;;;;;;;5.57;5.07;;;;;;;;;;5033639;28;24434;-45
2022/09/02 05:41:18;;;;;;;4.97;4.47;;;;;;;;;;5036341;28;24520;-46
2022/09/02 05:43:44;;;;;;;4.93;4.53;;;;;;;;;;5040429;28;24524;-46
2022/09/02 05:46:10;;;;;;;4.80;4.40;;;;;;;;;;5037258;28;25100;-46
2022/09/02 05:51:20;;;;;;;5.10;4.70;;;;;;;;;;5036777;28;24434;-46
2022/09/02 05:53:45;;;;;;;4.93;4.10;;;;;;;;;;5037972;28;24825;-45
2022/09/02 05:56:11;;;;;;;4.80;4.40;;;;;;;;;;5027471;28;25220;-46
2022/09/02 05:58:36;;;;;;;4.40;4.10;;;;;;;;;;5034230;28;24427;-45
2022/09/02 06:01:11;;;;;;;4.90;4.30;;;;;;;;;;5034428;28;24437;-45
2022/09/02 06:03:36;;;;;;;4.63;4.22;;;;;;;;;;5028989;28;24565;-45
2022/09/02 06:06:02;;;;;;;5.60;5.10;;;;;;;;;;5029152;28;25206;-45
2022/09/02 06:08:27;;;;;;;4.80;4.40;;;;;;;;;;5029769;28;24442;-45
2022/09/02 06:10:53;;;;;;;4.50;4.10;;;;;;;;;;5034665;28;24440;-45
2022/09/02 06:13:21;;;;;;;4.80;4.30;;;;;;;;;;5022105;28;24941;-46
2022/09/02 06:15:49;;;;;;;5.85;5.18;;;;;;;;;;5028803;28;24966;-46
2022/09/02 06:18:15;;;;;;;4.30;4.00;;;;;;;;;;5032623;28;25105;-46
2022/09/02 06:20:41;;;;;;;4.10;3.80;;;;;;;;;;5031778;28;26233;-47
2022/09/02 06:23:06;;;;;;;4.00;3.70;;;;;;;;;;5038180;28;25016;-46
2022/09/02 06:25:34;;;;;;;4.40;4.10;;;;;;;;;;5026650;28;24451;-47
2022/09/02 06:28:00;;;;;;;4.35;3.90;;;;;;;;;;5029397;28;24434;-47
2022/09/02 06:30:25;;;;;;;4.60;4.20;;;;;;;;;;5036680;28;24427;-46
2022/09/02 06:32:50;;;;;;;4.20;3.90;;;;;;;;;;5037147;28;24427;-47
2022/09/02 06:35:15;;;;;;;4.50;4.20;;;;;;;;;;5036033;28;24538;-47
2022/09/02 06:37:40;;;;;;;4.60;4.10;;;;;;;;;;5032922;28;24423;-50
2022/09/02 06:40:06;;;;;;;4.10;3.77;;;;;;;;;;5032559;28;24462;-46
2022/09/02 06:42:31;;;;;;;4.10;3.80;;;;;;;;;;5037465;28;24451;-46
2022/09/02 06:44:56;;;;;;;3.47;3.17;;;;;;;;;;5046414;28;25224;-45
2022/09/02 06:47:21;;;;;;;4.30;4.00;;;;;;;;;;5039141;28;24442;-46
2022/09/02 06:49:47;;;;;;;4.57;3.97;;;;;;;;;;5026618;28;24777;-46
2022/09/02 06:52:12;;;;;;;4.23;3.93;;;;;;;;;;5026357;28;24817;-45
2022/09/02 06:54:38;;;;;;;3.83;3.53;;;;;;;;;;5037490;28;24745;-45
2022/09/02 06:57:03;;;;;;;3.90;3.60;;;;;;;;;;5033944;28;24957;-45
2022/09/02 06:59:28;;;;;;;3.33;3.03;;;;;;;;;;5035892;28;24418;-46
2022/09/02 07:01:53;;;;;;;3.10;2.90;;;;;;;;;;5049416;28;24625;-46
2022/09/02 07:07:03;;;;;;;3.13;2.83;;;;;;;;;;5041250;28;24446;-46
2022/09/02 07:09:29;;;;;;;3.35;3.10;;;;;;;;;;5030927;28;24432;-46
2022/09/02 07:11:56;;;;;;;3.40;3.10;;;;;;;;;;5027407;28;24415;-47
2022/09/02 07:14:21;;;;;;;3.30;3.00;;;;;;;;;;5041389;28;24427;-46
2022/09/02 07:16:48;;;;;;;2.77;2.57;;;;;;;;;;5029481;28;24965;-46
2022/09/02 07:19:14;;;;;;;3.72;3.42;;;;;;;;;;5029979;28;24415;-46
2022/09/02 07:21:42;;;;;;;2.90;2.70;;;;;;;;;;5029558;28;24792;-47
2022/09/02 07:24:09;;;;;;;3.53;2.95;;;;;;;;;;5038563;28;24510;-46
2022/09/02 07:26:34;;;;;;;2.63;2.42;;;;;;;;;;5047652;28;24457;-48
2022/09/02 07:29:00;;;;;;;2.80;2.60;;;;;;;;;;5049319;28;24869;-46
2022/09/02 07:31:28;;;;;;;3.33;3.00;;;;;;;;;;5048305;28;24527;-46
2022/09/02 07:33:57;;;;;;;2.70;2.50;;;;;;;;;;5048553;28;24395;-46
2022/09/02 07:36:22;;;;;;;2.45;2.35;;;;;;;;;;5049331;28;24417;-46
2022/09/02 07:38:47;;;;;;;2.90;2.70;;;;;;;;;;5048794;28;24387;-48
2022/09/02 07:41:13;;;;;;;2.30;2.20;;;;;;;;;;5044304;28;24500;-47
2022/09/02 07:43:40;;;;;;;2.40;2.30;;;;;;;;;;5028849;28;24396;-46
2022/09/02 07:46:05;;;;;;;2.38;2.17;;;;;;;;;;5029025;28;24542;-48
2022/09/02 07:48:31;;;;;;;2.63;2.20;;;;;;;;;;5029095;28;24522;-47
2022/09/02 07:50:57;;;;;;;2.30;2.10;;;;;;;;;;5028424;28;24400;-46
2022/09/02 07:53:22;;;;;;;2.60;2.00;;;;;;;;;;5047174;28;25234;-47
2022/09/02 07:55:47;;;;;;;1.83;1.73;;;;;;;;;;5048649;28;24394;-45
2022/09/02 07:58:13;;;;;;;2.00;1.80;;;;;;;;;;5048845;28;24406;-45
2022/09/02 08:00:40;;;;;;;2.05;1.90;;;;;;;;;;5048434;28;24956;-46
2022/09/02 08:03:06;;;;;;;2.10;2.00;;;;;;;;;;5046390;28;24427;-45
2022/09/02 08:05:31;;;;;;;2.10;1.90;;;;;;;;;;5048921;28;24754;-46
2022/09/02 08:07:57;;;;;;;2.10;1.90;;;;;;;;;;5046762;28;24428;-46
2022/09/02 08:10:24;;;;;;;1.90;1.80;;;;;;;;;;5037326;28;24510;-46
2022/09/02 08:12:50;;;;;;;2.70;1.80;;;;;;;;;;5027955;28;24729;-45
2022/09/02 08:15:15;;;;;;;1.50;1.40;;;;;;;;;;5028553;28;24395;-46
2022/09/02 08:17:41;;;;;;;2.30;1.50;;;;;;;;;;5028682;28;24438;-46
2022/09/02 08:20:07;;;;;;;1.60;1.50;;;;;;;;;;5031742;28;24476;-47
2022/09/02 08:22:34;;;;;;;1.40;1.30;;;;;;;;;;5030552;28;24427;-47
2022/09/02 08:24:59;;;;;;;1.50;1.40;;;;;;;;;;5028087;28;24395;-47
2022/09/02 08:27:26;;;;;;;1.70;1.35;;;;;;;;;;5028601;28;24486;-47
2022/09/02 08:29:51;;;;;;;1.53;1.27;;;;;;;;;;5028337;28;24407;-47
2022/09/02 08:32:16;;;;;;;2.10;1.38;;;;;;;;;;5028465;28;24506;-46
2022/09/02 08:34:41;;;;;;;1.50;1.40;;;;;;;;;;5028148;28;24430;-51
2022/09/02 08:37:07;;;;;;;1.65;1.55;;;;;;;;;;5027897;28;24419;-46
2022/09/02 08:39:32;;;;;;;1.70;1.30;;;;;;;;;;5028043;28;24438;-46
2022/09/02 08:41:57;;;;;;;1.20;1.20;;;;;;;;;;5027631;28;25196;-47
2022/09/02 08:44:23;;;;;;;1.50;1.40;;;;;;;;;;5027931;28;24759;-46
2022/09/02 08:46:50;;;;;;;1.30;1.20;;;;;;;;;;5027888;28;24392;-46
2022/09/02 08:49:25;;;;;;;1.77;1.10;;;;;;;;;;5027817;28;24415;-46
2022/09/02 08:51:57;;;;;;;1.20;1.10;;;;;;;;;;5037539;28;24499;-46
2022/09/02 08:54:33;;;;;;;0.90;0.90;;;;;;;;;;5047582;28;24406;-46
2022/09/02 08:56:58;;;;;;;1.15;0.98;;;;;;;;;;5047283;28;24945;-47
2022/09/02 08:59:26;;;;;;;1.10;0.80;;;;;;;;;;5047692;28;24407;-47
2022/09/02 09:02:03;;;;;;;2.78;1.00;;;;;;;;;;5028491;28;24420;-48
2022/09/02 09:04:36;;;;;;;1.40;1.00;;;;;;;;;;5026945;28;24432;-47
2022/09/02 09:07:10;;;;;;;1.20;1.10;;;;;;;;;;5028422;28;24988;-47
2022/09/02 09:09:44;;;;;;;1.50;1.00;;;;;;;;;;5047618;28;24424;-46
2022/09/02 09:12:14;;;;;;;1.20;1.00;;;;;;;;;;5033622;28;24463;-46
2022/09/02 09:14:56;;;;;;;1.60;0.90;;;;;;;;;;5047784;28;24387;-47
2022/09/02 09:17:31;;;;;;;1.10;1.00;;;;;;;;;;5041061;28;24478;-47
2022/09/02 09:19:59;;;;;;;0.90;0.90;;;;;;;;;;5027775;28;24396;-45
2022/09/02 09:22:30;;;;;;;0.93;0.93;;;;;;;;;;5027530;28;24442;-46
2022/09/02 09:24:55;;;;;;;1.00;1.00;;;;;;;;;;5045859;28;24430;-46
2022/09/02 09:27:21;;;;;;;1.10;1.00;;;;;;;;;;5059720;28;24424;-46
2022/09/02 09:29:47;;;;;;;0.80;0.80;;;;;;;;;;5055225;28;24433;-46
2022/09/02 09:32:22;;;;;;;1.17;1.07;;;;;;;;;;5047591;28;24465;-46
2022/09/02 09:34:49;;;;;;;1.13;1.00;;;;;;;;;;5055513;28;24465;-45
2022/09/02 09:37:45;;;;;;;1.55;1.00;;;;;;;;;;5041810;28;24921;-47
2022/09/02 09:40:22;;;;;;;1.40;1.10;;;;;;;;;;5029428;28;24497;-46
2022/09/02 09:42:48;;;;;;;0.80;0.80;;;;;;;;;;5044833;28;24518;-45
2022/09/02 09:45:19;;;;;;;1.30;0.70;;;;;;;;;;5043064;28;24482;-46
2022/09/02 09:47:44;;;;;;;1.90;1.00;;;;;;;;;;5039872;28;24998;-46
2022/09/02 09:50:11;;;;;;;2.90;1.30;;;;;;;;;;5046402;28;24502;-47
2022/09/02 09:52:37;;;;;;;2.20;1.10;;;;;;;;;;5044873;28;25040;-46
2022/09/02 09:55:05;;;;;;;1.90;1.10;;;;;;;;;;5043144;28;24453;-47
2022/09/02 09:57:30;;;;;;;1.30;1.00;;;;;;;;;;5044400;28;25038;-47
2022/09/02 09:59:56;;;;;;;0.90;0.90;;;;;;;;;;5043031;28;24412;-47
2022/09/02 10:02:23;;;;;;;0.95;0.90;;;;;;;;;;5045231;28;24783;-46
2022/09/02 10:04:49;;;;;;;1.10;1.00;;;;;;;;;;5042144;28;24395;-45
2022/09/02 10:07:33;;;;;;;0.90;0.90;;;;;;;;;;5043561;28;24846;-45
2022/09/02 10:10:10;;;;;;;1.25;1.00;;;;;;;;;;5023529;28;24424;-46
2022/09/02 10:12:35;;;;;;;2.00;1.07;;;;;;;;;;5034252;28;24929;-48
2022/09/02 10:15:01;;;;;;;2.17;1.10;;;;;;;;;;5053388;28;24805;-47
2022/09/02 10:17:32;;;;;;;1.30;0.80;;;;;;;;;;5046107;28;24960;-47
2022/09/02 10:20:03;;;;;;;1.20;0.90;;;;;;;;;;5029353;28;24469;-47
2022/09/02 10:22:40;;;;;;;1.02;0.93;;;;;;;;;;5037243;28;24737;-48
2022/09/02 10:25:11;;;;;;;1.20;1.00;;;;;;;;;;5045685;28;25012;-47
2022/09/02 10:27:45;;;;;;;1.50;1.00;;;;;;;;;;5032133;28;24969;-48
2022/09/02 10:30:15;;;;;;;1.30;0.85;;;;;;;;;;5026999;28;25047;-47
2022/09/02 10:32:59;;;;;;;2.38;1.10;;;;;;;;;;5038789;28;24446;-48
2022/09/02 10:35:38;;;;;;;1.57;1.00;;;;;;;;;;5050249;28;24418;-47
2022/09/02 10:38:28;;;;;;;1.60;0.90;;;;;;;;;;5045366;28;24988;-47
2022/09/02 10:41:00;;;;;;;0.82;0.80;;;;;;;;;;5032400;28;24420;-47
2022/09/02 10:43:31;;;;;;;1.10;1.00;;;;;;;;;;5046082;28;24400;-46
2022/09/02 10:45:58;;;;;;;1.50;1.05;;;;;;;;;;5048482;28;25208;-47
2022/09/02 10:48:39;;;;;;;1.20;1.00;;;;;;;;;;5035432;28;24435;-44
2022/09/02 10:51:04;;;;;;;1.17;1.08;;;;;;;;;;5048721;28;24427;-53
2022/09/02 10:53:29;;;;;;;1.47;1.20;;;;;;;;;;5046245;28;24971;-46
2022/09/02 10:55:59;;;;;;;1.70;0.93;;;;;;;;;;5048676;28;24961;-46
2022/09/02 10:58:37;;;;;;;1.20;1.10;;;;;;;;;;5031331;28;25340;-45
2022/09/02 11:01:03;;;;;;;1.40;1.00;;;;;;;;;;5032433;28;25011;-45
2022/09/02 11:03:32;;;;;;;1.40;1.10;;;;;;;;;;5049042;28;24414;-46
2022/09/02 11:06:04;;;;;;;1.40;1.30;;;;;;;;;;5048491;28;24433;-46
2022/09/02 11:08:38;;;;;;;1.10;0.90;;;;;;;;;;5048902;28;25008;-46
2022/09/02 11:11:21;;;;;;;1.10;1.00;;;;;;;;;;5042968;28;24535;-47
2022/09/02 11:13:49;;;;;;;1.80;0.88;;;;;;;;;;5027651;28;24423;-46
2022/09/02 11:16:18;;;;;;;1.50;1.02;;;;;;;;;;5034499;28;24437;-46
2022/09/02 11:18:50;;;;;;;1.27;1.17;;;;;;;;;;5039596;28;24595;-45
2022/09/02 11:21:25;;;;;;;0.90;0.90;;;;;;;;;;5036430;28;25111;-45
2022/09/02 11:23:54;;;;;;;0.90;0.90;;;;;;;;;;5045715;28;24416;-46
2022/09/02 11:26:32;;;;;;;1.63;1.02;;;;;;;;;;5039281;28;24988;-47
2022/09/02 11:28:57;;;;;;;0.80;0.80;;;;;;;;;;5033252;28;24434;-47
2022/09/02 11:31:33;;;;;;;1.25;1.15;;;;;;;;;;5048301;28;24515;-48
2022/09/02 11:34:05;;;;;;;1.13;1.02;;;;;;;;;;5045066;28;24427;-48
2022/09/02 11:36:30;;;;;;;2.10;1.00;;;;;;;;;;5049323;28;24375;-47
2022/09/02 11:38:58;;;;;;;1.47;1.10;;;;;;;;;;5047770;28;24786;-47
2022/09/02 11:41:43;;;;;;;0.80;0.80;;;;;;;;;;5042227;28;24498;-46
2022/09/02 11:44:15;;;;;;;1.60;1.10;;;;;;;;;;5047386;28;24937;-46
2022/09/02 11:46:52;;;;;;;1.70;0.90;;;;;;;;;;5047697;28;24526;-46
2022/09/02 11:49:35;;;;;;;2.30;1.00;;;;;;;;;;5047752;28;24445;-46
2022/09/02 11:52:04;;;;;;;1.50;0.80;;;;;;;;;;5028940;28;24493;-45
2022/09/02 11:54:38;;;;;;;1.40;1.08;;;;;;;;;;5028509;28;24400;-45
2022/09/02 11:57:04;;;;;;;1.00;0.90;;;;;;;;;;5025475;28;24450;-45
2022/09/02 11:59:47;;;;;;;1.17;0.90;;;;;;;;;;5028772;28;24550;-46
2022/09/02 12:02:22;;;;;;;1.00;0.90;;;;;;;;;;5045679;28;24526;-46
2022/09/02 12:04:47;;;;;;;0.90;0.90;;;;;;;;;;5047255;28;24522;-46
2022/09/02 12:07:13;;;;;;;1.00;1.00;;;;;;;;;;5045099;28;24483;-46
2022/09/02 12:09:51;;;;;;;1.73;0.90;;;;;;;;;;5044920;28;24968;-47
2022/09/02 12:12:35;;;;;;;0.88;0.88;;;;;;;;;;5025639;28;24435;-46
2022/09/02 12:15:02;;;;;;;0.73;0.73;;;;;;;;;;5028163;28;24396;-46
2022/09/02 12:17:48;;;;;;;2.30;1.02;;;;;;;;;;5042635;28;24419;-46
2022/09/02 12:20:33;;;;;;;2.20;1.00;;;;;;;;;;5044095;28;24431;-46
2022/09/02 12:22:59;;;;;;;1.27;1.10;;;;;;;;;;5030624;28;24432;-46
2022/09/02 12:25:24;;;;;;;0.88;0.80;;;;;;;;;;5041279;28;24435;-46
2022/09/02 12:27:49;;;;;;;0.80;0.80;;;;;;;;;;5048392;28;24395;-46
2022/09/02 12:30:35;;;;;;;1.77;0.97;;;;;;;;;;5045051;28;24444;-46
2022/09/02 12:33:01;;;;;;;0.90;0.80;;;;;;;;;;5046732;28;24872;-46
2022/09/02 12:35:30;;;;;;;0.95;0.85;;;;;;;;;;5043057;28;24528;-46
2022/09/02 12:37:56;;;;;;;0.80;0.80;;;;;;;;;;5048194;28;24414;-46
2022/09/02 12:40:26;;;;;;;1.48;0.80;;;;;;;;;;5044878;28;24573;-47
2022/09/02 12:42:52;;;;;;;0.85;0.85;;;;;;;;;;5037694;28;24958;-47
2022/09/02 12:45:25;;;;;;;1.00;0.82;;;;;;;;;;5037967;28;24985;-48
2022/09/02 12:48:02;;;;;;;0.77;0.77;;;;;;;;;;5033597;28;24426;-47
2022/09/02 12:50:33;;;;;;;0.80;0.80;;;;;;;;;;5044758;28;24576;-46
2022/09/02 12:53:17;;;;;;;0.85;0.70;;;;;;;;;;5045623;28;24415;-47
2022/09/02 12:55:50;;;;;;;0.80;0.80;;;;;;;;;;5045797;28;24423;-45
2022/09/02 12:58:19;;;;;;;0.95;0.85;;;;;;;;;;5042994;28;25023;-47
2022/09/02 13:00:50;;;;;;;1.00;0.80;;;;;;;;;;5025834;28;24392;-47
2022/09/02 13:03:21;;;;;;;1.00;0.80;;;;;;;;;;5031251;28;24485;-46
2022/09/02 13:06:05;;;;;;;1.50;0.80;;;;;;;;;;5043377;28;24403;-46
2022/09/02 13:08:37;;;;;;;0.90;0.90;;;;;;;;;;5044232;28;24431;-46
2022/09/02 13:11:20;;;;;;;1.63;0.90;;;;;;;;;;5045378;28;24518;-49
2022/09/02 13:13:56;;;;;;;1.02;0.88;;;;;;;;;;5040602;28;25070;-46
2022/09/02 13:16:21;;;;;;;1.60;1.05;;;;;;;;;;5045356;28;24573;-46
2022/09/02 13:18:58;;;;;;;1.70;1.00;;;;;;;;;;5042745;28;24524;-47
2022/09/02 13:21:43;;;;;;;0.93;0.82;;;;;;;;;;5045184;28;25024;-46
2022/09/02 13:24:33;;;;;;;1.80;0.90;;;;;;;;;;5046963;28;24798;-47
2022/09/02 13:27:12;;;;;;;1.20;1.10;;;;;;;;;;5046788;28;24403;-47
2022/09/02 13:29:56;;;;;;;1.40;1.00;;;;;;;;;;5046652;28;24929;-46
2022/09/02 13:32:23;;;;;;;1.10;1.00;;;;;;;;;;5046658;28;24434;-47
2022/09/02 13:34:49;;;;;;;3.17;1.00;;;;;;;;;;5039246;28;24594;-47
2022/09/02 13:37:31;;;;;;;1.20;1.10;;;;;;;;;;5041045;28;24472;-45
2022/09/02 13:39:57;;;;;;;1.50;1.30;;;;;;;;;;5032771;28;24431;-46
2022/09/02 13:42:24;;;;;;;1.27;1.00;;;;;;;;;;5055029;28;24422;-46
2022/09/02 13:44:50;;;;;;;1.10;1.00;;;;;;;;;;5046143;28;24777;-47
2022/09/02 13:47:16;;;;;;;1.60;1.00;;;;;;;;;;5040824;28;24477;-46
2022/09/02 13:49:44;;;;;;;1.65;0.95;;;;;;;;;;5032516;28;24420;-47
2022/09/02 13:52:17;;;;;;;1.05;0.95;;;;;;;;;;5035491;28;24434;-46
2022/09/02 13:54:44;;;;;;;1.10;1.00;;;;;;;;;;5035555;28;24449;-46
2022/09/02 13:57:11;;;;;;;1.20;1.10;;;;;;;;;;5041087;28;24504;-46
2022/09/02 13:59:46;;;;;;;1.15;1.05;;;;;;;;;;5038481;28;24424;-46
2022/09/02 14:02:31;;;;;;;1.60;1.10;;;;;;;;;;5040562;28;24476;-46
2022/09/02 14:04:58;;;;;;;1.10;1.10;;;;;;;;;;5039347;28;24463;-46
2022/09/02 14:07:27;;;;;;;1.30;1.20;;;;;;;;;;5045962;28;24545;-46
2022/09/02 14:09:52;;;;;;;1.10;1.00;;;;;;;;;;5036038;28;24444;-45
2022/09/02 14:12:18;;;;;;;1.17;1.00;;;;;;;;;;5043765;28;24976;-46
2022/09/02 14:14:43;;;;;;;1.20;1.10;;;;;;;;;;5063481;28;24468;-45
2022/09/02 14:17:25;;;;;;;1.53;1.00;;;;;;;;;;5058040;28;24410;-45
2022/09/02 14:19:51;;;;;;;1.40;1.30;;;;;;;;;;5046131;28;24387;-46
2022/09/02 14:22:25;;;;;;;1.42;1.33;;;;;;;;;;5057740;28;24415;-51
2022/09/02 14:24:50;;;;;;;1.80;1.30;;;;;;;;;;5046304;28;24399;-45
2022/09/02 14:27:20;;;;;;;1.20;1.10;;;;;;;;;;5052689;28;24422;-45
2022/09/02 14:29:46;;;;;;;1.40;1.30;;;;;;;;;;5056890;28;24531;-45
2022/09/02 14:32:12;;;;;;;1.88;1.30;;;;;;;;;;5054206;28;24419;-45
2022/09/02 14:34:47;;;;;;;2.90;1.35;;;;;;;;;;5044920;28;24592;-46
2022/09/02 14:37:20;;;;;;;1.38;1.27;;;;;;;;;;5034671;28;24466;-46
2022/09/02 14:39:52;;;;;;;2.47;1.13;;;;;;;;;;5031709;28;24781;-46
2022/09/02 14:42:17;;;;;;;1.73;1.00;;;;;;;;;;5033573;28;24428;-46
2022/09/02 14:44:45;;;;;;;1.30;1.20;;;;;;;;;;5044796;28;24433;-46
2022/09/02 14:47:12;;;;;;;1.25;1.10;;;;;;;;;;5036364;28;24474;-46
2022/09/02 14:49:43;;;;;;;1.70;1.40;;;;;;;;;;5032272;28;24595;-46
2022/09/02 14:52:29;;;;;;;2.83;1.73;;;;;;;;;;5039346;28;24592;-46
2022/09/02 14:54:55;;;;;;;1.40;1.30;;;;;;;;;;5035733;28;24427;-46